Time;durP1;ratioP1;P1;durP2;ratioP2;P2;SDS_P1;SDS_P2;PMS_P1;PMS_P2;Temp;Humidity;BMP_temperature;BMP_pressure;BME280_temperature;BME280_humidity;BME280_pressure;Samples;Min_cycle;Max_cycle;Signal;HPM_P1;HPM_P2
2021/10/09 00:02:24;;;;;;;;;;;;;;;2.37;53.94;102237.63;4892083;29;19959;-78
2021/10/09 00:04:50;;;;;;;;;;;;;;;2.35;53.85;102236.66;4876113;29;19923;-76
2021/10/09 00:07:15;;;;;;;;;;;;;;;2.30;53.89;102236.38;4881797;29;19951;-76
2021/10/09 00:09:42;;;;;;;;;;;;;;;2.25;54.25;102237.75;4913109;29;19916;-77
2021/10/09 00:12:07;;;;;;;;;;;;;;;2.23;54.06;102241.88;4898200;29;19932;-77
2021/10/09 00:14:33;;;;;;;;;;;;;;;2.22;54.34;102233.28;4896347;29;19943;-76
2021/10/09 00:16:58;;;;;;;;;;;;;;;2.19;54.07;102232.19;4887841;29;19927;-76
2021/10/09 00:19:24;;;;;;;;;;;;;;;2.15;54.48;102230.22;4889185;29;19967;-75
2021/10/09 00:21:50;;;;;;;;;;;;;;;2.12;54.32;102236.06;4892587;29;20356;-76
2021/10/09 00:24:18;;;;;;;;;;;;;;;2.07;54.29;102230.63;4899330;29;19935;-75
2021/10/09 00:26:45;;;;;;;;;;;;;;;2.03;54.51;102231.22;4878557;29;19930;-76
2021/10/09 00:29:11;;;;;;;;;;;;;;;2.00;54.53;102231.00;4892374;29;19934;-75
2021/10/09 00:31:36;;;;;;;;;;;;;;;1.94;54.50;102230.59;4886804;29;19933;-76
2021/10/09 00:34:02;;;;;;;;;;;;;;;1.90;54.45;102229.53;4890643;29;19925;-76
2021/10/09 00:36:28;;;;;;;;;;;;;;;1.91;54.85;102222.69;4872913;29;20051;-77
2021/10/09 00:38:54;;;;;;;;;;;;;;;1.92;54.98;102233.09;4892658;29;19958;-76
2021/10/09 00:41:20;;;;;;;;;;;;;;;1.93;55.06;102232.31;4891679;29;19956;-77
2021/10/09 00:43:45;;;;;;;;;;;;;;;1.90;54.91;102228.63;4876319;29;19923;-75
2021/10/09 00:46:11;;;;;;;;;;;;;;;1.87;55.22;102225.88;4891157;29;19923;-76
2021/10/09 00:48:37;;;;;;;;;;;;;;;1.84;55.10;102218.84;4896501;29;19923;-76
2021/10/09 00:51:04;;;;;;;;;;;;;;;1.80;55.24;102215.19;4875713;29;19951;-75
2021/10/09 00:53:30;;;;;;;;;;;;;;;1.80;54.97;102216.84;4888689;29;20375;-76
2021/10/09 00:55:59;;;;;;;;;;;;;;;1.81;54.83;102213.50;4873041;29;19934;-76
2021/10/09 00:58:25;;;;;;;;;;;;;;;1.83;55.05;102218.75;4888580;29;20377;-76
2021/10/09 01:00:50;;;;;;;;;;;;;;;1.82;55.38;102212.72;4891393;29;19934;-76
2021/10/09 01:03:17;;;;;;;;;;;;;;;1.82;55.03;102214.41;4873026;29;19939;-78
2021/10/09 01:05:42;;;;;;;;;;;;;;;1.84;55.45;102212.84;4873041;29;19985;-76
2021/10/09 01:08:08;;;;;;;;;;;;;;;1.82;55.20;102206.72;4878882;29;19927;-75
2021/10/09 01:10:34;;;;;;;;;;;;;;;1.79;55.10;102205.72;4888452;29;20248;-75
2021/10/09 01:13:03;;;;;;;;;;;;;;;1.74;55.63;102213.91;4874709;29;20404;-77
2021/10/09 01:15:32;;;;;;;;;;;;;;;1.67;55.24;102209.16;4900350;29;19963;-76
2021/10/09 01:18:13;;;;;;;;;;;;;;;1.64;55.90;102204.72;4882084;29;19916;-77
2021/10/09 01:20:46;;;;;;;;;;;;;;;1.62;55.28;102206.28;4893926;29;19939;-76
2021/10/09 01:23:13;;;;;;;;;;;;;;;1.62;55.45;102201.16;4889896;29;19924;-75
2021/10/09 01:25:38;;;;;;;;;;;;;;;1.58;55.82;102199.16;4878189;29;19935;-76
2021/10/09 01:28:04;;;;;;;;;;;;;;;1.63;56.08;102202.94;4895361;29;19927;-76
2021/10/09 01:30:30;;;;;;;;;;;;;;;1.63;55.58;102200.38;4894406;29;19935;-75
2021/10/09 01:32:56;;;;;;;;;;;;;;;1.61;55.92;102204.50;4857722;29;19927;-77
2021/10/09 01:35:21;;;;;;;;;;;;;;;1.62;55.98;102203.72;4891199;29;19924;-78
2021/10/09 01:37:47;;;;;;;;;;;;;;;1.63;56.25;102196.13;4892945;29;19924;-77
2021/10/09 01:40:13;;;;;;;;;;;;;;;1.64;55.81;102205.59;4902768;29;19935;-75
2021/10/09 01:42:45;;;;;;;;;;;;;;;1.59;56.02;102204.38;4896999;29;19979;-76
2021/10/09 01:45:11;;;;;;;;;;;;;;;1.58;56.36;102205.19;4878980;29;20018;-75
2021/10/09 01:47:41;;;;;;;;;;;;;;;1.60;55.71;102211.31;4874967;29;20408;-76
2021/10/09 01:50:09;;;;;;;;;;;;;;;1.60;56.40;102201.03;4867548;29;19958;-76
2021/10/09 01:52:35;;;;;;;;;;;;;;;1.61;55.87;102202.81;4880745;29;20030;-75
2021/10/09 01:55:00;;;;;;;;;;;;;;;1.62;55.86;102198.59;4893691;29;19978;-75
2021/10/09 01:57:26;;;;;;;;;;;;;;;1.59;56.36;102204.38;4893960;29;19924;-77
2021/10/09 01:59:51;;;;;;;;;;;;;;;1.58;56.11;102196.59;4902115;29;19994;-75
2021/10/09 02:02:23;;;;;;;;;;;;;;;1.53;56.25;102195.41;4915836;29;19931;-76
2021/10/09 02:04:48;;;;;;;;;;;;;;;1.42;55.91;102198.16;4915103;29;19927;-76
2021/10/09 02:07:18;;;;;;;;;;;;;;;1.36;56.63;102192.59;4910779;29;19931;-74
2021/10/09 02:09:44;;;;;;;;;;;;;;;1.33;56.33;102197.53;4893615;29;19983;-76
2021/10/09 02:12:10;;;;;;;;;;;;;;;1.32;56.28;102193.19;4889734;29;19946;-75
2021/10/09 02:15:11;;;;;;;;;;;;;;;1.35;56.70;102189.13;4881502;29;19934;-76
2021/10/09 02:25:47;;;;;;;;;;;;;;;1.40;56.46;102186.91;4890050;29;20380;-75
2021/10/09 02:28:18;;;;;;;;;;;;;;;1.46;56.39;102189.84;4873512;29;21511;-77
2021/10/09 02:30:44;;;;;;;;;;;;;;;1.42;56.54;102190.47;4877131;29;20411;-76
2021/10/09 02:33:10;;;;;;;;;;;;;;;1.41;56.33;102188.69;4893991;29;19934;-76
2021/10/09 02:35:36;;;;;;;;;;;;;;;1.42;56.91;102189.56;4879395;29;19927;-75
2021/10/09 02:38:07;;;;;;;;;;;;;;;1.40;56.93;102188.56;4889815;29;19924;-77
2021/10/09 02:40:33;;;;;;;;;;;;;;;1.41;56.28;102188.69;4875582;29;20162;-76
2021/10/09 02:43:00;;;;;;;;;;;;;;;1.45;56.99;102193.22;4889826;29;19938;-77
2021/10/09 02:45:28;;;;;;;;;;;;;;;1.43;56.22;102181.06;4878350;29;19924;-76
2021/10/09 02:47:57;;;;;;;;;;;;;;;1.40;56.49;102191.13;4893619;29;19930;-76
2021/10/09 02:50:24;;;;;;;;;;;;;;;1.39;56.55;102187.69;4878243;29;19987;-77
2021/10/09 02:52:50;;;;;;;;;;;;;;;1.35;56.40;102180.56;4887932;29;19924;-76
2021/10/09 02:55:19;;;;;;;;;;;;;;;1.32;56.54;102175.22;4888678;29;19927;-75
2021/10/09 02:57:45;;;;;;;;;;;;;;;1.30;56.65;102182.84;4888260;29;19952;-74
2021/10/09 03:00:11;;;;;;;;;;;;;;;1.32;56.57;102180.34;4856934;29;19935;-75
2021/10/09 03:02:37;;;;;;;;;;;;;;;1.33;57.03;102179.56;4887910;29;19936;-75
2021/10/09 03:05:04;;;;;;;;;;;;;;;1.24;56.53;102174.72;4891315;29;19923;-75
2021/10/09 03:07:30;;;;;;;;;;;;;;;1.22;57.15;102170.25;4889745;29;19923;-76
2021/10/09 03:09:56;;;;;;;;;;;;;;;1.12;56.65;102171.31;4890506;29;19935;-76
2021/10/09 03:12:22;;;;;;;;;;;;;;;1.12;56.91;102169.66;4874530;29;19924;-76
2021/10/09 03:14:48;;;;;;;;;;;;;;;1.15;57.12;102169.84;4874618;29;21055;-78
2021/10/09 03:17:14;;;;;;;;;;;;;;;1.15;56.80;102167.28;4877795;29;19923;-75
2021/10/09 03:19:40;;;;;;;;;;;;;;;1.12;56.74;102167.09;4874634;29;19943;-75
2021/10/09 03:22:06;;;;;;;;;;;;;;;1.13;57.35;102161.16;4895900;29;19927;-76
2021/10/09 03:24:33;;;;;;;;;;;;;;;1.12;56.67;102159.38;4882559;29;19931;-75
2021/10/09 03:26:59;;;;;;;;;;;;;;;1.11;57.13;102160.16;4891764;29;19938;-76
2021/10/09 03:29:25;;;;;;;;;;;;;;;1.08;57.55;102164.22;4889278;29;19924;-76
2021/10/09 03:31:50;;;;;;;;;;;;;;;1.05;57.31;102160.66;4890310;29;19923;-75
2021/10/09 03:34:16;;;;;;;;;;;;;;;1.08;57.67;102153.97;4874944;29;20038;-75
2021/10/09 03:36:45;;;;;;;;;;;;;;;1.09;57.50;102161.75;4888362;29;19930;-75
2021/10/09 03:39:14;;;;;;;;;;;;;;;1.08;57.29;102157.41;4890869;29;20022;-75
2021/10/09 03:41:45;;;;;;;;;;;;;;;1.10;57.14;102152.38;4891553;29;19983;-77
2021/10/09 03:44:11;;;;;;;;;;;;;;;1.08;57.62;102153.97;4894493;29;19983;-76
2021/10/09 03:46:47;;;;;;;;;;;;;;;1.05;57.14;102157.19;4898754;29;20208;-76
2021/10/09 03:49:25;;;;;;;;;;;;;;;1.10;57.77;102155.81;4892584;29;19965;-75
2021/10/09 03:54:35;;;;;;;;;;;;;;;1.20;57.56;102155.69;4912847;29;19927;-78
2021/10/09 03:57:01;;;;;;;;;;;;;;;1.26;57.28;102159.41;4911529;29;19918;-76
2021/10/09 03:59:26;;;;;;;;;;;;;;;1.27;56.40;102161.19;4881372;29;20067;-74
2021/10/09 04:01:59;;;;;;;;;;;;;;;1.38;57.40;102162.81;4891254;29;19927;-77
2021/10/09 04:04:37;;;;;;;;;;;;;;;1.51;57.01;102167.09;4862422;29;19949;-77
2021/10/09 04:07:20;;;;;;;;;;;;;;;1.63;56.96;102164.44;4862475;29;19927;-76
2021/10/09 04:09:46;;;;;;;;;;;;;;;1.77;57.05;102153.38;4888736;29;20315;-77
2021/10/09 04:12:11;;;;;;;;;;;;;;;1.87;57.03;102142.00;4888223;29;19923;-77
2021/10/09 04:14:37;;;;;;;;;;;;;;;2.10;57.05;102151.16;4893712;29;19924;-77
2021/10/09 04:17:03;;;;;;;;;;;;;;;2.46;56.89;102147.38;4891590;29;19930;-77
2021/10/09 04:19:29;;;;;;;;;;;;;;;3.04;56.89;102150.03;4891055;29;19950;-76
2021/10/09 04:21:55;;;;;;;;;;;;;;;4.11;55.83;102152.63;4894986;29;20619;-77
2021/10/09 04:24:21;;;;;;;;;;;;;;;5.24;55.12;102133.63;4895158;29;20394;-77
2021/10/09 04:26:47;;;;;;;;;;;;;;;6.28;53.96;102130.84;4876291;29;20048;-76
2021/10/09 04:29:17;;;;;;;;;;;;;;;7.29;52.59;102131.75;4873464;29;19927;-79
2021/10/09 04:31:46;;;;;;;;;;;;;;;8.14;51.41;102128.22;4889345;29;20422;-78
2021/10/09 04:34:34;;;;;;;;;;;;;;;9.15;50.46;102116.28;4896260;29;19923;-78
2021/10/09 04:37:21;;;;;;;;;;;;;;;10.06;48.99;102122.63;4880650;29;19933;-77
2021/10/09 04:39:49;;;;;;;;;;;;;;;10.93;47.50;102126.00;4881210;29;19927;-79
2021/10/09 04:42:33;;;;;;;;;;;;;;;11.67;46.18;102124.34;4895373;29;19959;-76
2021/10/09 04:45:02;;;;;;;;;;;;;;;12.50;45.10;102112.28;4865747;29;19928;-77
2021/10/09 04:47:44;;;;;;;;;;;;;;;13.40;44.17;102118.22;4874997;29;19932;-79
2021/10/09 04:50:15;;;;;;;;;;;;;;;14.21;43.55;102108.97;4890324;29;19923;-76
2021/10/09 04:52:41;;;;;;;;;;;;;;;15.08;42.25;102113.44;4875955;29;19930;-78
2021/10/09 04:55:09;;;;;;;;;;;;;;;15.91;41.34;102102.69;4871598;29;19928;-79
2021/10/09 04:57:38;;;;;;;;;;;;;;;16.60;40.27;102097.72;4889039;29;20405;-78
2021/10/09 05:00:08;;;;;;;;;;;;;;;17.31;39.35;102106.59;4888771;29;20377;-78
2021/10/09 05:02:34;;;;;;;;;;;;;;;18.01;38.62;102103.84;4876881;29;19955;-78
2021/10/09 05:05:00;;;;;;;;;;;;;;;18.72;37.96;102101.75;4888086;29;20391;-76
2021/10/09 05:07:27;;;;;;;;;;;;;;;19.38;36.97;102090.75;4876844;29;19928;-77
2021/10/09 05:09:53;;;;;;;;;;;;;;;20.04;36.08;102093.56;4878252;29;19927;-76
2021/10/09 05:12:18;;;;;;;;;;;;;;;20.81;35.20;102082.88;4876245;29;19927;-78
2021/10/09 05:14:48;;;;;;;;;;;;;;;21.40;34.20;102089.81;4886590;29;19924;-77
2021/10/09 05:17:17;;;;;;;;;;;;;;;22.01;32.98;102078.97;4870922;29;19927;-74
2021/10/09 05:19:43;;;;;;;;;;;;;;;22.59;32.59;102076.00;4871187;29;19924;-76
2021/10/09 05:22:11;;;;;;;;;;;;;;;23.18;32.03;102072.75;4888181;29;20461;-76
2021/10/09 05:24:43;;;;;;;;;;;;;;;23.59;31.23;102041.59;4876176;29;19964;-75
2021/10/09 05:27:16;;;;;;;;;;;;;;;24.44;30.44;102062.16;4898281;29;19923;-73
2021/10/09 05:29:44;;;;;;;;;;;;;;;25.14;29.43;102062.56;4899540;29;19923;-77
2021/10/09 05:32:21;;;;;;;;;;;;;;;25.72;28.93;102058.75;4890623;29;19908;-75
2021/10/09 05:34:47;;;;;;;;;;;;;;;26.24;28.20;102063.06;4896367;29;19950;-77
2021/10/09 05:37:13;;;;;;;;;;;;;;;26.61;28.41;102059.78;4894253;29;19924;-78
2021/10/09 05:39:42;;;;;;;;;;;;;;;27.04;27.67;102056.25;4880439;29;19927;-76
2021/10/09 05:42:08;;;;;;;;;;;;;;;27.72;26.77;102047.94;4900792;29;19966;-74
2021/10/09 05:44:55;;;;;;;;;;;;;;;;;;;;;
2021/10/09 05:47:31;;;;;;;;;;;;;;;28.76;24.99;102051.09;4900658;29;19923;-73
2021/10/09 05:50:00;;;;;;;;;;;;;;;29.43;24.18;102048.53;4847943;29;19924;-76
2021/10/09 05:52:35;;;;;;;;;;;;;;;30.07;23.25;102039.72;4872047;29;19924;-74
2021/10/09 05:57:38;;;;;;;;;;;;;;;30.77;22.25;102041.16;4876793;29;19930;-75
2021/10/09 06:47:01;;;;;;;;;;;;;;;36.67;15.35;102010.66;4890683;29;20317;-79
2021/10/09 07:00:08;;;;;;;;;;;;;;;37.22;14.22;102009.56;4902243;29;20054;-77
2021/10/09 07:02:39;;;;;;;;;;;;;;;36.95;14.07;102011.00;4884879;29;19927;-74
2021/10/09 07:05:08;;;;;;;;;;;;;;;37.14;14.45;102009.38;4884506;29;20384;-77
2021/10/09 07:07:45;;;;;;;;;;;;;;;37.56;13.84;102011.16;4894415;29;19934;-75
2021/10/09 07:10:17;;;;;;;;;;;;;;;38.49;12.99;102006.28;4895108;29;19927;-76
2021/10/09 07:12:42;;;;;;;;;;;;;;;38.87;12.66;102003.66;4895947;29;19930;-79
2021/10/09 07:15:11;;;;;;;;;;;;;;;38.91;12.73;102007.78;4898619;29;19931;-76
2021/10/09 07:17:37;;;;;;;;;;;;;;;39.02;12.71;102006.75;4897757;29;19928;-76
2021/10/09 07:20:06;;;;;;;;;;;;;;;39.27;12.26;102002.50;4898897;29;19923;-78
2021/10/09 07:22:35;;;;;;;;;;;;;;;39.84;12.04;101998.75;4895914;29;19923;-74
2021/10/09 07:25:01;;;;;;;;;;;;;;;39.79;11.74;101998.38;4853013;29;19938;-78
2021/10/09 07:27:28;;;;;;;;;;;;;;;39.33;12.31;101997.50;4883565;29;19938;-80
2021/10/09 07:29:55;;;;;;;;;;;;;;;39.55;11.98;101986.19;4897510;29;20018;-78
2021/10/09 07:32:21;;;;;;;;;;;;;;;40.24;11.57;101993.03;4896561;29;19934;-78
2021/10/09 07:34:47;;;;;;;;;;;;;;;40.66;10.94;101992.38;4913313;29;19912;-76
2021/10/09 07:37:12;;;;;;;;;;;;;;;40.54;11.18;101991.75;4914666;29;19923;-76
2021/10/09 07:39:38;;;;;;;;;;;;;;;40.71;11.18;101990.03;4892809;29;19946;-75
2021/10/09 07:42:04;;;;;;;;;;;;;;;41.22;10.92;101989.25;4876067;29;20045;-78
2021/10/09 07:44:30;;;;;;;;;;;;;;;41.46;10.75;101993.09;4891752;29;20451;-74
2021/10/09 07:46:55;;;;;;;;;;;;;;;41.45;10.53;101991.38;4877052;29;19941;-81
2021/10/09 07:49:21;;;;;;;;;;;;;;;41.31;10.73;101974.63;4889940;29;19923;-76
2021/10/09 07:51:47;;;;;;;;;;;;;;;41.11;10.94;101982.22;4892127;29;19924;-76
2021/10/09 07:54:12;;;;;;;;;;;;;;;41.06;10.67;101968.16;4896519;29;19942;-75
2021/10/09 07:56:38;;;;;;;;;;;;;;;41.12;10.39;101973.03;4886343;29;19934;-78
2021/10/09 07:59:04;;;;;;;;;;;;;;;41.12;10.59;101972.19;4893116;29;20308;-77
2021/10/09 08:01:31;;;;;;;;;;;;;;;41.13;10.70;101971.16;4891135;29;19973;-77
2021/10/09 08:03:58;;;;;;;;;;;;;;;40.98;10.49;101971.72;4890940;29;19987;-76
2021/10/09 08:06:23;;;;;;;;;;;;;;;40.60;10.81;101971.16;4877472;29;19923;-73
2021/10/09 08:08:49;;;;;;;;;;;;;;;40.33;10.67;101973.00;4888055;29;19975;-79
2021/10/09 08:11:15;;;;;;;;;;;;;;;40.30;10.48;101970.59;4886905;29;19931;-77
2021/10/09 08:13:41;;;;;;;;;;;;;;;40.08;10.35;101970.03;4889032;29;19927;-79
2021/10/09 08:16:06;;;;;;;;;;;;;;;40.18;10.40;101976.28;4892758;29;19924;-79
2021/10/09 08:18:32;;;;;;;;;;;;;;;40.28;10.29;101969.88;4862775;29;20030;-78
2021/10/09 08:21:02;;;;;;;;;;;;;;;40.59;9.82;101961.25;4892598;29;19986;-77
2021/10/09 08:23:31;;;;;;;;;;;;;;;40.55;10.14;101965.31;4879423;29;19924;-78
2021/10/09 08:39:39;;;;;;;;;;;;;;;40.54;9.69;101964.47;4893959;29;19927;-78
2021/10/09 08:42:05;;;;;;;;;;;;;;;40.40;9.49;101952.28;4893543;29;19928;-77
2021/10/09 08:44:31;;;;;;;;;;;;;;;40.54;9.44;101956.28;4875607;29;20007;-76
2021/10/09 08:46:59;;;;;;;;;;;;;;;40.26;9.88;101950.13;4896018;29;19987;-78
2021/10/09 08:49:32;;;;;;;;;;;;;;;40.14;9.71;101955.78;4867915;29;19935;-77
2021/10/09 08:52:00;;;;;;;;;;;;;;;40.47;9.57;101947.03;4859332;29;19924;-80
2021/10/09 08:54:33;;;;;;;;;;;;;;;40.39;9.67;101952.44;4898157;29;19966;-78
2021/10/09 08:57:07;;;;;;;;;;;;;;;40.69;9.11;101948.41;4879799;29;19951;-78
2021/10/09 08:59:36;;;;;;;;;;;;;;;41.13;9.44;101952.06;4860596;29;19927;-77
2021/10/09 09:02:09;;;;;;;;;;;;;;;41.45;9.39;101950.44;4892529;29;20315;-79
2021/10/09 09:30:33;;;;;;;;;;;;;;;40.34;8.92;101920.19;4909747;29;19932;-75
2021/10/09 09:40:09;;;;;;;;;;;;;;;41.89;7.90;101919.28;4903717;29;19987;-76
2021/10/09 09:42:45;;;;;;;;;;;;;;;40.94;8.38;101927.56;4884792;29;19915;-76
2021/10/09 09:45:13;;;;;;;;;;;;;;;40.57;8.39;101916.94;4884541;29;19994;-73
2021/10/09 09:47:42;;;;;;;;;;;;;;;39.96;8.92;101920.38;4889468;29;20004;-77
2021/10/09 09:50:11;;;;;;;;;;;;;;;39.89;8.77;101868.41;4904189;29;19923;-77
2021/10/09 09:52:41;;;;;;;;;;;;;;;40.51;8.54;101919.28;4868045;29;19930;-77
2021/10/09 09:55:07;;;;;;;;;;;;;;;40.90;8.85;101922.59;4898578;29;19924;-80
2021/10/09 09:57:34;;;;;;;;;;;;;;;39.59;8.87;101903.19;4892628;29;19972;-80
2021/10/09 10:00:03;;;;;;;;;;;;;;;37.15;9.97;101917.03;4876666;29;19934;-81
2021/10/09 10:02:39;;;;;;;;;;;;;;;34.74;10.86;101925.25;4892950;29;19924;-77
2021/10/09 10:05:05;;;;;;;;;;;;;;;32.74;11.67;101919.16;4876607;29;19923;-79
2021/10/09 10:07:39;;;;;;;;;;;;;;;30.84;12.40;101926.13;4877189;29;20041;-76
2021/10/09 10:10:05;;;;;;;;;;;;;;;29.38;13.10;101921.94;4891586;29;20017;-78
2021/10/09 10:12:32;;;;;;;;;;;;;;;27.90;14.04;101936.56;4878094;29;20039;-76
2021/10/09 10:14:58;;;;;;;;;;;;;;;26.89;14.13;101930.47;4879816;29;19928;-75
2021/10/09 10:17:41;;;;;;;;;;;;;;;25.99;14.49;101934.19;4876767;29;19998;-72
2021/10/09 10:20:08;;;;;;;;;;;;;;;24.97;15.13;101940.66;4887799;29;19968;-76
2021/10/09 10:22:33;;;;;;;;;;;;;;;24.42;15.37;101927.44;4878130;29;19924;-78
2021/10/09 10:25:06;;;;;;;;;;;;;;;23.73;15.69;101937.53;4887966;29;19935;-74
2021/10/09 10:27:37;;;;;;;;;;;;;;;23.06;15.97;101935.03;4874957;29;19952;-75
2021/10/09 10:30:14;;;;;;;;;;;;;;;22.43;16.31;101941.06;4871477;29;19940;-76
2021/10/09 10:33:00;;;;;;;;;;;;;;;21.63;16.68;101934.03;4869928;29;19932;-74
2021/10/09 10:35:28;;;;;;;;;;;;;;;21.10;17.01;101935.94;4865543;29;19924;-74
2021/10/09 10:38:43;;;;;;;;;;;;;;;20.76;17.21;101933.03;4874830;29;19935;-78
2021/10/09 10:41:37;;;;;;;;;;;;;;;20.24;17.48;101894.22;4874790;29;19935;-78
2021/10/09 10:44:58;;;;;;;;;;;;;;;20.21;17.64;101931.25;4876108;29;20419;-78
2021/10/09 10:47:45;;;;;;;;;;;;;;;;;;;;;
2021/10/09 10:50:30;;;;;;;;;;;;;;;19.64;18.24;101925.84;4888249;29;19928;-79
2021/10/09 10:53:03;;;;;;;;;;;;;;;19.46;18.28;101921.72;4871512;29;19931;-78
2021/10/09 10:55:49;;;;;;;;;;;;;;;19.30;18.47;101925.44;4857545;29;19924;-79
2021/10/09 11:01:34;;;;;;;;;;;;;;;18.81;18.82;101925.03;4876443;29;19940;-80
2021/10/09 11:04:00;;;;;;;;;;;;;;;18.47;18.97;101926.19;4888368;29;19932;-78
2021/10/09 11:06:26;;;;;;;;;;;;;;;18.13;19.31;101915.03;4880713;29;19924;-75
2021/10/09 11:08:53;;;;;;;;;;;;;;;17.87;19.65;101926.56;4879044;29;19923;-74
2021/10/09 11:11:45;;;;;;;;;;;;;;;17.75;19.85;101914.34;4880253;29;19935;-74
2021/10/09 11:14:23;;;;;;;;;;;;;;;17.63;19.97;101927.56;4864318;29;19924;-74
2021/10/09 11:16:58;;;;;;;;;;;;;;;17.45;20.16;101914.47;4905003;29;19907;-74
2021/10/09 11:19:43;;;;;;;;;;;;;;;17.40;20.54;101918.00;4877422;29;19928;-75
2021/10/09 11:22:12;;;;;;;;;;;;;;;17.35;20.39;101917.16;4901730;29;19928;-74
2021/10/09 11:24:48;;;;;;;;;;;;;;;17.24;20.40;101910.16;4892182;29;19923;-76
2021/10/09 11:27:15;;;;;;;;;;;;;;;17.04;20.64;101902.34;4887813;29;20396;-77
2021/10/09 11:30:10;;;;;;;;;;;;;;;16.89;21.01;101911.09;4879137;29;19924;-75
2021/10/09 11:32:40;;;;;;;;;;;;;;;16.75;21.16;101908.47;4877042;29;19924;-77
2021/10/09 11:35:35;;;;;;;;;;;;;;;16.67;21.29;101902.34;4891313;29;20325;-77
2021/10/09 11:38:37;;;;;;;;;;;;;;;16.63;21.32;101905.88;4863095;29;20393;-77
2021/10/09 11:41:25;;;;;;;;;;;;;;;16.55;21.51;101901.50;4864620;29;20376;-78
2021/10/09 11:44:04;;;;;;;;;;;;;;;16.52;21.64;101896.22;4887456;29;19927;-76
2021/10/09 11:55:22;;;;;;;;;;;;;;;16.32;22.10;101901.50;4892767;29;19991;-77
2021/10/09 11:57:48;;;;;;;;;;;;;;;16.27;22.27;101888.34;4892747;29;19930;-77
2021/10/09 12:00:29;;;;;;;;;;;;;;;16.22;22.11;101890.06;4876209;29;19924;-79
2021/10/09 12:02:55;;;;;;;;;;;;;;;16.07;22.37;101883.09;4888583;29;19934;-76
2021/10/09 12:05:34;;;;;;;;;;;;;;;15.91;22.52;101878.66;4873211;29;20366;-80
2021/10/09 12:08:23;;;;;;;;;;;;;;;15.66;22.78;101874.22;4889617;29;19928;-78
2021/10/09 12:11:07;;;;;;;;;;;;;;;15.43;23.29;101875.88;4859115;29;19923;-76
2021/10/09 12:13:54;;;;;;;;;;;;;;;15.27;23.38;101875.81;4891536;29;20304;-78
2021/10/09 12:16:28;;;;;;;;;;;;;;;15.15;23.66;101870.50;4874042;29;19980;-76
2021/10/09 12:19:00;;;;;;;;;;;;;;;15.03;23.62;101876.53;4858936;29;19967;-79
2021/10/09 12:21:28;;;;;;;;;;;;;;;14.98;23.83;101862.56;4875173;29;19928;-76
2021/10/09 12:23:57;;;;;;;;;;;;;;;14.91;23.99;101861.63;4859578;29;19931;-77
2021/10/09 12:26:26;;;;;;;;;;;;;;;14.86;23.96;101858.13;4886201;29;19923;-74
2021/10/09 12:29:10;;;;;;;;;;;;;;;14.80;24.09;101856.31;4872735;29;19927;-76
2021/10/09 12:31:37;;;;;;;;;;;;;;;14.75;24.26;101852.81;4874776;29;19995;-76
2021/10/09 12:34:03;;;;;;;;;;;;;;;14.70;24.33;101851.91;4887501;29;20028;-77
2021/10/09 12:39:16;;;;;;;;;;;;;;;14.63;24.50;101852.69;4897039;29;19923;-77
2021/10/09 12:41:42;;;;;;;;;;;;;;;14.60;24.46;101843.06;4872883;29;19931;-76
2021/10/09 12:44:07;;;;;;;;;;;;;;;14.55;24.59;101844.78;4889147;29;19931;-75
2021/10/09 12:46:33;;;;;;;;;;;;;;;14.50;24.69;101844.75;4872291;29;19959;-79
2021/10/09 12:49:00;;;;;;;;;;;;;;;14.45;24.97;101849.94;4876390;29;19928;-76
2021/10/09 12:51:25;;;;;;;;;;;;;;;14.40;25.13;101848.16;4876460;29;19923;-76
2021/10/09 12:53:53;;;;;;;;;;;;;;;14.38;25.22;101848.16;4876857;29;19934;-75
2021/10/09 12:56:18;;;;;;;;;;;;;;;14.14;25.07;101801.69;4879243;29;20447;-75
2021/10/09 12:58:44;;;;;;;;;;;;;;;14.37;25.16;101840.25;4878108;29;19948;-78
2021/10/09 13:01:09;;;;;;;;;;;;;;;14.35;25.10;101834.13;4876767;29;19964;-77
2021/10/09 13:03:35;;;;;;;;;;;;;;;14.33;25.24;101828.03;4885824;29;19928;-78
2021/10/09 13:06:00;;;;;;;;;;;;;;;14.27;25.42;101832.34;4905098;29;19948;-77
2021/10/09 13:08:26;;;;;;;;;;;;;;;14.23;25.50;101830.56;4894638;29;19946;-77
2021/10/09 13:10:54;;;;;;;;;;;;;;;14.18;25.53;101829.66;4910502;29;19932;-76
2021/10/09 13:13:19;;;;;;;;;;;;;;;14.14;25.72;101828.75;4901146;29;20474;-77
2021/10/09 13:15:45;;;;;;;;;;;;;;;14.09;25.71;101821.72;4888026;29;19923;-80
2021/10/09 13:18:10;;;;;;;;;;;;;;;14.05;25.79;101819.94;4879775;29;19927;-76
2021/10/09 13:20:37;;;;;;;;;;;;;;;13.97;25.76;101818.13;4899738;29;19934;-77
2021/10/09 13:23:04;;;;;;;;;;;;;;;13.93;25.86;101831.19;4897239;29;19923;-75
2021/10/09 13:25:30;;;;;;;;;;;;;;;13.66;26.03;101788.19;4885107;29;20448;-76
2021/10/09 13:27:56;;;;;;;;;;;;;;;13.77;26.04;101822.28;4886143;29;20412;-79
2021/10/09 13:30:24;;;;;;;;;;;;;;;13.68;26.07;101816.09;4881121;29;20136;-78
2021/10/09 13:32:49;;;;;;;;;;;;;;;13.61;26.21;101816.00;4896368;29;19924;-76
2021/10/09 13:35:15;;;;;;;;;;;;;;;13.57;26.41;101815.13;4862590;29;19924;-77
2021/10/09 13:37:48;;;;;;;;;;;;;;;13.52;26.49;101812.47;4879134;29;19988;-77
2021/10/09 13:40:14;;;;;;;;;;;;;;;13.47;26.68;101816.75;4885660;29;19950;-77
2021/10/09 13:42:39;;;;;;;;;;;;;;;13.42;26.65;101815.81;4901131;29;19974;-77
2021/10/09 13:45:05;;;;;;;;;;;;;;;13.35;26.61;101811.38;4894073;29;19931;-78
2021/10/09 13:47:31;;;;;;;;;;;;;;;13.26;26.84;101807.78;4893808;29;20031;-76
2021/10/09 13:49:56;;;;;;;;;;;;;;;13.18;26.94;101806.78;4908974;29;19939;-76
2021/10/09 13:52:22;;;;;;;;;;;;;;;13.10;26.93;101814.53;4910566;29;19947;-78
2021/10/09 13:54:47;;;;;;;;;;;;;;;13.02;26.98;101812.69;4909105;29;20029;-77
2021/10/09 13:57:13;;;;;;;;;;;;;;;12.96;27.21;101810.88;4879632;29;19950;-78
2021/10/09 13:59:38;;;;;;;;;;;;;;;12.90;27.25;101808.19;4895255;29;20035;-76
2021/10/09 14:02:04;;;;;;;;;;;;;;;12.83;27.48;101807.22;4874056;29;19934;-77
2021/10/09 14:04:37;;;;;;;;;;;;;;;12.74;27.66;101800.13;4865883;29;19999;-79
2021/10/09 14:07:02;;;;;;;;;;;;;;;12.65;27.75;101803.50;4893170;29;19930;-77
2021/10/09 14:09:28;;;;;;;;;;;;;;;12.57;28.06;101799.88;4863927;29;20291;-76
2021/10/09 14:11:54;;;;;;;;;;;;;;;12.50;28.07;101798.03;4892720;29;19927;-76
2021/10/09 14:14:20;;;;;;;;;;;;;;;12.42;28.21;101789.22;4895017;29;19959;-77
2021/10/09 14:16:46;;;;;;;;;;;;;;;12.34;28.43;101794.34;4897715;29;19924;-78
2021/10/09 14:19:11;;;;;;;;;;;;;;;12.28;28.64;101791.63;4899828;29;19928;-78
2021/10/09 14:21:37;;;;;;;;;;;;;;;12.19;28.78;101794.97;4897829;29;20406;-78
2021/10/09 14:24:03;;;;;;;;;;;;;;;12.11;28.73;101788.72;4875439;29;20410;-77
2021/10/09 14:26:29;;;;;;;;;;;;;;;12.02;28.83;101784.22;4892384;29;20018;-76
2021/10/09 14:28:54;;;;;;;;;;;;;;;11.94;28.99;101791.91;4891435;29;19938;-77
2021/10/09 14:31:21;;;;;;;;;;;;;;;11.85;29.17;101796.94;4892675;29;19933;-79
2021/10/09 14:33:47;;;;;;;;;;;;;;;11.77;29.28;101798.56;4875132;29;19923;-79
2021/10/09 14:36:12;;;;;;;;;;;;;;;11.67;29.40;101792.28;4875601;29;19995;-78
2021/10/09 14:38:38;;;;;;;;;;;;;;;11.58;29.49;101793.88;4892928;29;19927;-76
2021/10/09 14:41:04;;;;;;;;;;;;;;;11.48;29.69;101794.53;4889853;29;20004;-77
2021/10/09 14:43:32;;;;;;;;;;;;;;;11.41;30.25;101793.53;4879917;29;19998;-81
2021/10/09 14:46:07;;;;;;;;;;;;;;;11.32;29.99;101790.78;4903215;29;19968;-79
2021/10/09 14:48:37;;;;;;;;;;;;;;;11.21;30.45;101793.16;4884486;29;19930;-77
2021/10/09 15:20:08;;;;;;;;;;;;;;;10.24;32.10;101790.13;4891169;29;19959;-77
2021/10/09 15:22:34;;;;;;;;;;;;;;;10.17;32.53;101795.13;4893193;29;19928;-79
2021/10/09 15:25:00;;;;;;;;;;;;;;;10.12;32.81;101791.56;4901526;29;19934;-76
2021/10/09 15:27:28;;;;;;;;;;;;;;;10.04;32.74;101791.38;4894561;29;19924;-79
2021/10/09 15:29:54;;;;;;;;;;;;;;;9.97;32.84;101792.03;4895615;29;20373;-78
2021/10/09 15:32:20;;;;;;;;;;;;;;;9.90;33.30;101798.81;4895329;29;19928;-77
2021/10/09 15:34:45;;;;;;;;;;;;;;;9.83;33.46;101804.69;4891758;29;19923;-77
2021/10/09 15:37:11;;;;;;;;;;;;;;;9.76;33.27;101801.91;4862893;29;20382;-78